Latest Weather Observations for Latrobe Valley

IDV60801

Issued at 5:02 am EDT Saturday 13 February 2016 (issued every 30 minutes, with the page automatically refreshed every 10 minutes)

About weather observations | Map of weather stations | Latest weather observations for VIC | Other Formats
Station Details ID: 085280 Name: LATROBE VALLEY AIRPORT Lat: -38.21 Lon: 146.47 Height: 55.7 m
Data from the previous 72 hours. | See also: Recent months at Latrobe Valley
Date/Time
EDT
Temp
°C
App
Temp
°C
Dew
Point
Rel
Hum
%
Delta-T
°C
Wind Press
QNH
hPa
Press
MSL
hPa
Rain
since 9 am
mm
Dir
 
Spd
km/h
Gust
km/h
Spd
kts
Gust
kts
13/05:00am 14.9 16.3 14.3 96 0.3 CALM 0 0 0 0 1008.6 1008.5 0.0
13/04:30am 14.4 15.5 13.6 95 0.4 CALM 0 0 0 0 1008.8 1008.7 0.0
13/04:24am 14.2 15.3 13.4 95 0.4 CALM 0 0 0 0 1008.8 1008.7 0.0
13/04:06am 15.0 16.4 14.4 96 0.3 CALM 0 0 0 0 1008.9 1008.8 0.0
13/04:00am 15.0 16.4 14.4 96 0.3 CALM 0 0 0 0 1008.9 1008.8 0.0
13/03:30am 15.1 16.5 14.5 96 0.3 CALM 0 0 0 0 1009.2 1009.1 0.0
13/03:23am 14.7 15.9 13.9 95 0.4 CALM 0 0 0 0 1009.2 1009.1 0.0
13/03:00am 15.8 17.3 14.7 93 0.6 CALM 0 0 0 0 1009.3 1009.2 0.0
13/02:30am 16.2 17.9 15.1 93 0.6 CALM 0 0 0 0 1009.7 1009.6 0.0
13/02:00am 16.4 18.1 15.1 92 0.8 CALM 0 0 0 0 1010.1 1010.0 0.0
13/01:30am 16.3 16.4 14.5 89 1.0 NNE 7 7 4 4 1010.6 1010.5 0.0
13/01:00am 18.3 19.0 16.1 87 1.3 E 7 11 4 6 1010.9 1010.8 0.0
13/12:30am 18.6 19.3 16.2 86 1.4 E 7 11 4 6 1011.3 1011.2 0.0
13/12:00am 18.9 19.4 16.5 86 1.4 E 9 15 5 8 1011.6 1011.5 0.0
 
Date/Time
EDT
Temp
°C
App
Temp
°C
Dew
Point
Rel
Hum
%
Delta-T
°C
Wind Press
QNH
hPa
Press
MSL
hPa
Rain
since 9 am
mm
Dir
 
Spd
km/h
Gust
km/h
Spd
kts
Gust
kts
12/11:30pm 18.8 19.5 16.0 84 1.7 E 7 11 4 6 1011.9 1011.8 0.0
12/11:00pm 19.1 19.8 16.0 82 1.8 E 7 11 4 6 1012.2 1012.1 0.0
12/10:30pm 19.6 19.9 16.1 80 2.1 E 9 13 5 7 1012.6 1012.5 0.0
12/10:00pm 20.4 20.5 16.4 78 2.4 E 11 20 6 11 1012.8 1012.7 0.0
12/09:30pm 20.6 20.2 16.2 76 2.6 ENE 13 19 7 10 1012.8 1012.7 0.0
12/09:00pm 21.3 20.6 16.3 73 3.0 ENE 15 22 8 12 1012.5 1012.4 0.0
12/08:30pm 22.0 21.3 16.3 70 3.5 ENE 15 24 8 13 1012.3 1012.2 0.0
12/08:00pm 23.0 20.9 16.3 66 4.1 ENE 22 32 12 17 1012.1 1012.0 0.0
12/07:30pm 24.2 22.0 15.9 59 5.0 ENE 22 30 12 16 1011.9 1011.8 0.0
12/07:00pm 25.6 23.8 15.9 55 5.9 ENE 20 28 11 15 1011.7 1011.6 0.0
12/06:30pm 27.0 25.1 15.7 50 6.9 ENE 20 28 11 15 1011.5 1011.4 0.0
12/06:00pm 27.5 25.8 14.8 45 7.7 ENE 17 22 9 12 1011.7 1011.6 0.0
12/05:30pm 28.3 26.1 14.5 43 8.3 NE 19 24 10 13 1011.6 1011.5 0.0
12/05:00pm 28.4 27.2 13.9 41 8.7 NE 13 20 7 11 1011.8 1011.7 0.0
12/04:30pm 28.7 27.3 13.4 39 9.1 NE 13 24 7 13 1012.0 1011.9 0.0
12/04:00pm 28.9 28.3 13.6 39 9.1 N 9 17 5 9 1012.2 1012.1 0.0
12/03:30pm 28.3 27.3 12.2 37 9.4 NE 9 17 5 9 1012.7 1012.6 0.0
12/03:00pm 27.9 26.1 13.4 40 8.6 NE 15 24 8 13 1013.1 1013.0 0.0
12/02:30pm 26.7 25.1 12.7 42 8.2 NE 13 22 7 12 1013.6 1013.4 0.0
12/02:00pm 26.9 25.9 13.3 43 8.0 ENE 11 19 6 10 1014.1 1013.9 0.0
12/01:30pm 26.1 25.1 14.6 49 6.9 ENE 13 20 7 11 1014.5 1014.3 0.0
12/01:00pm 25.1 23.6 14.3 51 6.4 ENE 15 22 8 12 1014.9 1014.7 0.0
12/12:30pm 24.9 23.9 14.7 53 6.1 ENE 13 19 7 10 1015.2 1015.0 0.0
12/12:00pm 24.1 23.1 14.5 55 5.7 ENE 13 22 7 12 1015.4 1015.2 0.0
12/11:30am 23.1 22.4 15.4 62 4.6 E 13 20 7 11 1015.7 1015.5 0.0
12/11:00am 22.5 21.0 15.4 64 4.2 ENE 17 24 9 13 1015.8 1015.6 0.0
12/10:30am 21.6 20.5 15.2 67 3.8 ENE 15 20 8 11 1016.3 1016.1 0.0
12/10:00am 20.9 20.1 15.0 69 3.5 ENE 13 20 7 11 1016.6 1016.4 0.0
12/09:30am 19.5 18.8 14.3 72 3.0 ENE 11 15 6 8 1016.8 1016.6 0.0
12/09:00am 18.2 17.7 13.7 75 2.6 NE 9 15 5 8 1016.9 1016.7 0.0
12/08:30am 16.3 17.0 12.3 77 2.2 CALM 0 0 0 0 1017.2 1017.0 0.0
12/08:00am 14.1 14.7 11.8 86 1.2 CALM 0 4 0 2 1017.1 1016.9 0.0
12/07:30am 13.7 14.0 11.0 84 1.4 CALM 0 6 0 3 1017.1 1016.9 0.0
12/07:00am 12.7 13.0 10.9 89 0.9 CALM 0 0 0 0 1016.9 1016.7 0.0
12/06:30am 12.2 12.6 11.1 93 0.6 CALM 0 0 0 0 1016.7 1016.5 0.0
12/06:00am 11.7 11.9 10.4 92 0.7 CALM 0 0 0 0 1016.4 1016.2 0.0
12/05:30am 12.3 12.5 10.7 90 0.8 CALM 0 0 0 0 1016.3 1016.1 0.0
12/05:00am 12.2 12.5 10.8 91 0.7 CALM 0 0 0 0 1016.1 1015.9 0.0
12/04:30am 12.6 12.9 11.0 90 0.8 CALM 0 0 0 0 1015.9 1015.7 0.0
12/04:00am 12.4 11.3 10.8 90 0.8 SW 7 9 4 5 1016.0 1015.8 0.0
12/03:30am 13.0 13.5 11.6 91 0.7 CALM 0 0 0 0 1016.0 1015.8 0.0
12/03:00am 13.1 13.4 10.8 86 1.2 CALM 0 2 0 1 1016.2 1016.0 0.0
12/02:30am 14.6 13.9 11.4 81 1.7 ESE 6 6 3 3 1016.4 1016.2 0.0
12/02:00am 15.9 15.6 12.8 82 1.7 ESE 6 7 3 4 1016.8 1016.6 0.0
12/01:30am 16.5 16.7 13.0 80 2.0 ESE 4 7 2 4 1017.2 1017.0 0.0
12/01:00am 17.0 16.9 13.3 79 2.1 ESE 6 9 3 5 1017.4 1017.2 0.0
12/12:30am 17.9 17.6 13.4 75 2.5 E 7 9 4 5 1017.6 1017.4 0.0
12/12:00am 18.3 17.7 13.4 73 2.8 ENE 9 13 5 7 1017.7 1017.5 0.0
 
Date/Time
EDT
Temp
°C
App
Temp
°C
Dew
Point
Rel
Hum
%
Delta-T
°C
Wind Press
QNH
hPa
Press
MSL
hPa
Rain
since 9 am
mm
Dir
 
Spd
km/h
Gust
km/h
Spd
kts
Gust
kts
11/11:30pm 18.8 17.8 13.4 71 3.1 ENE 11 15 6 8 1017.8 1017.6 0.0
11/11:00pm 19.2 17.7 13.2 68 3.4 NE 13 17 7 9 1018.1 1017.9 0.0
11/10:30pm 19.3 18.5 13.0 67 3.6 ENE 9 13 5 7 1018.1 1017.9 0.0
11/10:00pm 19.4 17.9 13.1 67 3.6 ENE 13 19 7 10 1017.5 1017.3 0.0
11/09:30pm 19.5 18.0 13.0 66 3.7 ENE 13 19 7 10 1017.2 1017.0 0.0
11/09:00pm 19.9 19.2 13.1 65 3.9 E 9 15 5 8 1017.3 1017.1 0.0
11/08:30pm 20.3 19.6 13.3 64 4.0 E 9 17 5 9 1016.8 1016.6 0.0
11/08:00pm 20.8 20.2 13.5 63 4.2 ESE 9 15 5 8 1016.3 1016.1 0.0
11/07:30pm 21.2 19.7 13.1 60 4.6 ESE 13 19 7 10 1015.6 1015.4 0.0
11/07:00pm 22.0 20.3 13.6 59 4.9 ESE 15 22 8 12 1015.2 1015.0 0.0
11/06:30pm 22.8 21.0 13.3 55 5.5 ESE 15 24 8 13 1014.9 1014.7 0.0
11/06:00pm 24.7 22.8 14.2 52 6.2 E 17 24 9 13 1014.4 1014.2 0.0
11/05:30pm 25.3 22.9 13.8 49 6.8 E 19 26 10 14 1014.2 1014.0 0.0
11/05:00pm 26.3 24.1 13.4 45 7.6 NE 17 22 9 12 1013.8 1013.6 0.0
11/04:30pm 26.5 24.0 13.6 45 7.6 NE 19 28 10 15 1013.8 1013.6 0.0
11/04:00pm 26.5 24.3 13.3 44 7.8 NE 17 30 9 16 1014.1 1013.9 0.0
11/03:30pm 26.8 25.3 13.2 43 8.0 NE 13 22 7 12 1014.3 1014.1 0.0
11/03:00pm 26.6 25.2 12.3 41 8.3 ENE 11 24 6 13 1014.6 1014.4 0.0
11/02:30pm 26.1 25.3 11.8 41 8.2 E 7 15 4 8 1015.0 1014.8 0.0
11/02:00pm 24.8 23.5 11.4 43 7.6 E 9 19 5 10 1015.3 1015.1 0.0
11/01:30pm 24.7 23.8 12.6 47 7.0 E 9 19 5 10 1015.6 1015.4 0.0
11/01:00pm 24.7 23.7 12.3 46 7.1 ENE 9 17 5 9 1015.9 1015.7 0.0
11/12:30pm 23.7 22.9 13.0 51 6.2 E 9 17 5 9 1016.4 1016.2 0.0
11/12:00pm 22.6 21.5 12.0 51 6.0 ENE 9 17 5 9 1016.9 1016.7 0.0
11/11:30am 21.7 20.5 11.7 53 5.6 ENE 9 17 5 9 1017.1 1016.9 0.0
11/11:00am 21.3 20.7 12.2 56 5.1 ENE 7 15 4 8 1017.3 1017.1 0.0
11/10:30am 20.2 19.8 12.9 63 4.1 SW 7 11 4 6 1017.5 1017.3 0.0
11/10:00am 19.7 19.4 13.2 66 3.7 SW 7 13 4 7 1017.6 1017.4 0.0
11/09:30am 18.6 18.6 13.5 72 2.9 SW 6 11 3 6 1017.7 1017.5 0.0
11/09:00am 17.5 17.2 13.4 77 2.3 WSW 7 11 4 6 1017.7 1017.5 0.2
11/08:30am 15.6 15.9 13.3 86 1.3 W 4 7 2 4 1017.7 1017.5 0.2
11/08:00am 14.0 13.7 12.7 92 0.7 WSW 6 7 3 4 1017.4 1017.2 0.2
11/07:30am 12.5 11.7 11.2 92 0.7 SW 6 7 3 4 1017.3 1017.1 0.2
11/07:00am 11.2 10.1 10.1 93 0.6 SSW 6 7 3 4 1017.0 1016.8 0.2
11/06:30am 12.1 12.0 10.8 92 0.7 S 2 6 1 3 1016.7 1016.5 0.2
11/06:00am 12.3 12.5 10.7 90 0.8 CALM 0 7 0 4 1016.2 1016.0 0.2
11/05:30am 12.4 12.3 10.8 90 0.8 SSW 2 6 1 3 1016.0 1015.8 0.2
11/05:00am 12.7 12.0 11.3 91 0.7 WSW 6 7 3 4 1015.8 1015.6 0.2
11/04:30am 11.8 10.8 10.2 90 0.8 W 6 7 3 4 1015.8 1015.6 0.2
11/04:00am 13.3 12.9 11.2 87 1.1 SW 4 6 2 3 1015.8 1015.6 0.2
11/03:30am 12.6 11.7 10.5 87 1.1 SSW 6 7 3 4 1015.8 1015.6 0.2
11/03:00am 13.8 13.6 11.7 87 1.1 S 4 11 2 6 1015.8 1015.6 0.2
11/02:30am 14.6 14.1 12.1 85 1.4 SW 6 7 3 4 1015.8 1015.6 0.2
11/02:00am 14.1 13.0 11.8 86 1.2 W 9 11 5 6 1016.0 1015.8 0.2
11/01:30am 13.6 12.4 11.5 87 1.1 WNW 9 11 5 6 1016.2 1016.0 0.2
11/01:00am 14.8 13.0 12.1 84 1.5 WSW 13 15 7 8 1016.3 1016.1 0.2
11/12:30am 15.5 13.4 12.3 81 1.8 WSW 15 19 8 10 1016.5 1016.3 0.2
11/12:00am 15.9 13.7 12.1 78 2.1 W 15 19 8 10 1016.5 1016.3 0.2
 
Date/Time
EDT
Temp
°C
App
Temp
°C
Dew
Point
Rel
Hum
%
Delta-T
°C
Wind Press
QNH
hPa
Press
MSL
hPa
Rain
since 9 am
mm
Dir
 
Spd
km/h
Gust
km/h
Spd
kts
Gust
kts
10/11:30pm 16.0 13.8 12.0 77 2.2 W 15 20 8 11 1016.5 1016.3 0.2
10/11:00pm 16.3 14.0 11.7 74 2.5 W 15 19 8 10 1016.4 1016.2 0.2
10/10:30pm 16.5 14.9 11.6 73 2.7 W 11 15 6 8 1016.4 1016.2 0.2
10/10:00pm 17.0 16.1 11.3 69 3.1 W 7 11 4 6 1016.1 1015.9 0.2
10/09:30pm 18.2 16.1 11.0 63 3.9 SW 13 19 7 10 1015.6 1015.4 0.2
10/09:00pm 19.3 15.8 10.8 58 4.6 SW 20 26 11 14 1015.2 1015.0 0.2
10/08:30pm 20.4 17.5 11.1 55 5.1 SW 17 24 9 13 1014.8 1014.6 0.2
10/08:00pm 21.7 18.5 11.4 52 5.7 SW 19 24 10 13 1014.5 1014.3 0.2
10/07:30pm 23.1 19.5 11.8 49 6.4 SW 22 28 12 15 1014.1 1013.9 0.2
10/07:00pm 24.1 20.2 12.1 47 6.8 SW 24 30 13 16 1013.8 1013.6 0.2
10/06:30pm 25.2 21.2 10.3 39 8.3 SW 22 28 12 15 1013.3 1013.1 0.2
10/06:00pm 26.1 22.5 11.8 41 8.2 SW 22 33 12 18 1013.1 1013.0 0.2
10/05:30pm 26.7 22.6 11.6 39 8.6 SW 24 32 13 17 1012.8 1012.7 0.2
10/05:00pm 26.9 24.0 12.9 42 8.2 SW 20 32 11 17 1012.7 1012.6 0.2
10/04:30pm 26.4 23.7 13.5 45 7.6 SW 20 28 11 15 1012.7 1012.6 0.2
10/04:00pm 27.0 23.8 13.0 42 8.2 SW 22 32 12 17 1012.9 1012.8 0.2
10/03:30pm 27.1 24.7 13.8 44 7.9 WSW 19 30 10 16 1013.0 1012.9 0.2
10/03:00pm 26.3 23.6 13.4 45 7.6 SSW 20 28 11 15 1013.3 1013.1 0.2
10/02:30pm 26.6 24.3 13.0 43 8.0 SW 17 30 9 16 1013.6 1013.4 0.2
10/02:00pm 26.3 23.8 14.1 47 7.3 SW 20 28 11 15 1014.0 1013.8 0.2
10/01:30pm 24.6 22.6 15.0 55 5.8 WNW 19 22 10 12 1014.2 1014.0 0.2
10/01:00pm 24.2 22.5 14.6 55 5.7 WSW 17 30 9 16 1014.6 1014.4 0.2
10/12:30pm 22.7 21.6 15.3 63 4.4 WSW 15 22 8 12 1014.9 1014.7 0.2
10/12:00pm 22.1 21.0 15.2 65 4.1 WNW 15 26 8 14 1015.3 1015.1 0.0
10/11:30am 20.9 19.3 15.0 69 3.5 WNW 17 22 9 12 1015.7 1015.5 0.0
10/11:00am 20.1 18.5 15.1 73 2.9 WNW 17 20 9 11 1015.8 1015.6 0.0
10/10:55am 19.9 18.5 14.5 71 3.1 WNW 15 20 8 11 1015.8 1015.6 0.0
10/10:30am 18.7 17.4 14.8 78 2.3 WNW 15 20 8 11 1016.0 1015.8 0.0
10/10:00am 18.2 16.9 14.9 81 1.9 WNW 15 19 8 10 1016.1 1015.9 0.0
10/09:30am 17.8 16.6 15.1 84 1.6 WNW 15 19 8 10 1016.1 1015.9 0.0
10/09:00am 17.3 15.6 14.8 85 1.4 WNW 17 20 9 11 1016.0 1015.8 0.0
10/08:30am 17.1 15.8 14.9 87 1.3 WNW 15 20 8 11 1015.7 1015.5 0.0
10/08:00am 16.7 15.8 14.9 89 1.0 WNW 13 15 7 8 1015.6 1015.4 0.0
10/07:30am 16.0 14.6 14.5 91 0.9 WNW 15 19 8 10 1015.3 1015.1 0.0
10/07:00am 15.5 14.1 14.4 93 0.6 W 15 20 8 11 1015.1 1014.9 0.0
10/06:30am 15.4 14.3 14.4 94 0.6 WNW 13 17 7 9 1014.7 1014.5 0.0
10/06:00am 15.2 13.7 14.2 94 0.6 WNW 15 19 8 10 1014.7 1014.5 0.0
10/05:30am 15.1 13.9 14.0 93 0.6 WNW 13 17 7 9 1014.7 1014.5 0.0

Other Formats:

Comma delimited format used in spreadsheet applications
http://www.bom.gov.au/fwo/IDV60801/IDV60801.94891.axf

JavaScript Object Notation format (JSON) in row-major order
http://www.bom.gov.au/fwo/IDV60801/IDV60801.94891.json